Time;durP1;ratioP1;P1;durP2;ratioP2;P2;SDS_P1;SDS_P2;PMS_P1;PMS_P2;Temp;Humidity;BMP_temperature;BMP_pressure;BME280_temperature;BME280_humidity;BME280_pressure;Samples;Min_cycle;Max_cycle;Signal;HPM_P1;HPM_P2
2022/08/22 00:00:26;;;;;;;5.63;2.25;;;;;;;23.75;48.65;101544.81;4969009;28;20023;-65
2022/08/22 00:02:59;;;;;;;4.03;2.00;;;;;;;23.73;48.43;101544.97;4969975;28;20038;-64
2022/08/22 00:05:28;;;;;;;4.22;1.83;;;;;;;23.73;48.63;101544.09;4971929;28;20505;-64
2022/08/22 00:07:59;;;;;;;4.70;1.92;;;;;;;23.77;48.67;101550.00;4966800;28;20029;-66
2022/08/22 00:10:43;;;;;;;4.68;2.05;;;;;;;23.77;48.20;101553.50;4982216;28;20026;-67
2022/08/22 00:13:24;;;;;;;4.60;2.03;;;;;;;23.77;48.14;101550.00;4982174;28;20045;-66
2022/08/22 00:16:39;;;;;;;5.45;2.08;;;;;;;23.75;48.57;101552.81;4963426;28;20479;-66
2022/08/22 00:19:19;;;;;;;5.70;2.10;;;;;;;23.76;48.20;101554.47;4945624;28;20053;-66
2022/08/22 00:22:12;;;;;;;5.85;2.40;;;;;;;23.72;48.47;101545.13;4966945;28;20183;-66
2022/08/22 00:24:55;;;;;;;4.68;1.95;;;;;;;23.68;48.41;101544.53;4962884;28;21013;-66
2022/08/22 00:27:28;;;;;;;6.68;2.65;;;;;;;23.70;48.50;101539.94;4978200;28;20060;-68
2022/08/22 00:30:01;;;;;;;4.05;2.05;;;;;;;23.74;48.58;101543.13;4962815;28;20039;-65
2022/08/22 00:32:58;;;;;;;5.25;1.90;;;;;;;23.75;48.39;101558.13;4968386;28;20118;-67
2022/08/22 00:35:45;;;;;;;4.03;2.20;;;;;;;23.69;48.59;101540.06;4962849;28;20062;-66
2022/08/22 00:38:20;;;;;;;5.68;1.90;;;;;;;23.72;48.34;101548.59;4962526;28;20118;-66
2022/08/22 00:41:05;;;;;;;4.75;2.08;;;;;;;23.68;48.68;101538.38;4971342;28;20038;-66
2022/08/22 00:43:56;;;;;;;4.68;2.13;;;;;;;23.67;48.95;101537.56;4968817;28;20031;-67
2022/08/22 00:46:56;;;;;;;5.28;2.20;;;;;;;23.71;49.01;101554.06;4977762;28;20030;-67
2022/08/22 00:49:40;;;;;;;6.13;2.17;;;;;;;23.66;48.76;101541.19;4971174;28;20039;-66
2022/08/22 00:52:27;;;;;;;4.63;2.00;;;;;;;23.67;48.66;101552.66;4978150;28;20386;-66
2022/08/22 00:55:10;;;;;;;4.88;2.35;;;;;;;23.70;48.74;101555.91;4981816;28;20026;-66
2022/08/22 00:57:53;;;;;;;4.30;1.90;;;;;;;23.66;48.72;101549.19;4971128;28;20037;-66
2022/08/22 01:00:30;;;;;;;5.68;2.38;;;;;;;23.68;48.90;101551.69;4980192;28;20038;-66
2022/08/22 01:03:25;;;;;;;4.90;2.28;;;;;;;23.69;48.95;101559.53;4969860;28;20428;-66
2022/08/22 01:06:03;;;;;;;;;;;;;;;23.67;48.83;101553.53;4981254;28;20046;-65
2022/08/22 01:08:51;;;;;;;6.20;2.00;;;;;;;23.69;48.80;101559.53;4981594;28;20000;-66
2022/08/22 01:11:54;;;;;;;5.57;2.15;;;;;;;23.68;48.68;101549.03;4962052;28;20038;-66
2022/08/22 01:14:44;;;;;;;4.28;1.90;;;;;;;23.59;48.68;101534.78;4972846;28;20035;-64
2022/08/22 01:17:37;;;;;;;5.93;2.22;;;;;;;23.68;49.00;101549.03;4971949;28;20030;-66
2022/08/22 01:20:09;;;;;;;5.07;2.10;;;;;;;23.67;48.81;101544.69;4966078;28;20129;-67
2022/08/22 01:22:52;;;;;;;4.90;2.13;;;;;;;23.67;49.07;101547.34;4976982;28;20066;-67
2022/08/22 01:25:38;;;;;;;5.30;2.10;;;;;;;23.65;48.79;101539.50;4979269;28;20058;-69
2022/08/22 01:28:37;;;;;;;4.13;2.35;;;;;;;23.67;48.57;101547.34;4985380;28;20026;-67
2022/08/22 01:31:11;;;;;;;6.20;2.40;;;;;;;23.66;48.75;101543.03;4979140;28;20050;-66
2022/08/22 01:34:06;;;;;;;5.00;2.20;;;;;;;23.61;48.70;101537.31;4980518;28;20073;-64
2022/08/22 01:37:03;;;;;;;4.72;2.15;;;;;;;23.66;48.34;101545.69;4967291;28;20038;-67
2022/08/22 01:39:43;;;;;;;6.25;2.70;;;;;;;23.65;48.33;101550.16;4982085;28;20386;-67
2022/08/22 01:42:39;;;;;;;6.88;3.05;;;;;;;23.60;48.56;101544.44;4971681;28;20430;-66
2022/08/22 01:45:22;;;;;;;7.30;3.83;;;;;;;23.65;48.28;101541.34;4966097;28;20073;-65
2022/08/22 01:47:54;;;;;;;5.43;2.70;;;;;;;23.60;48.47;101541.78;4965894;28;20471;-66
2022/08/22 01:50:31;;;;;;;5.82;2.67;;;;;;;23.64;48.57;101534.34;4965549;28;20023;-65
2022/08/22 01:53:03;;;;;;;5.97;2.70;;;;;;;23.61;48.11;101532.00;4973100;28;20902;-66
2022/08/22 01:55:41;;;;;;;5.28;2.75;;;;;;;23.60;48.25;101533.78;4967324;28;20121;-64
2022/08/22 01:58:21;;;;;;;6.05;3.03;;;;;;;23.61;48.07;101530.16;4965477;28;20061;-67
2022/08/22 02:01:05;;;;;;;7.90;2.97;;;;;;;23.61;48.04;101532.00;4973893;28;20035;-66
2022/08/22 02:03:33;;;;;;;;;;;;;;;23.63;48.39;101540.66;4972900;28;20034;-66
2022/08/22 02:06:04;;;;;;;6.43;2.83;;;;;;;23.59;48.04;101526.81;4968536;28;19918;-66
2022/08/22 02:08:43;;;;;;;5.72;2.83;;;;;;;23.60;48.40;101524.97;4966099;28;20062;-66
2022/08/22 02:11:12;;;;;;;6.63;2.63;;;;;;;23.62;48.26;101530.97;4983844;28;20085;-66
2022/08/22 02:14:02;;;;;;;5.70;2.80;;;;;;;23.60;48.24;101531.13;4971473;28;20590;-67
2022/08/22 02:16:44;;;;;;;5.88;2.65;;;;;;;23.59;48.30;101529.47;4967639;28;20498;-66
2022/08/22 02:19:13;;;;;;;5.63;2.80;;;;;;;23.65;48.08;101533.34;4968631;28;20042;-67
2022/08/22 02:21:56;;;;;;;6.28;2.70;;;;;;;23.65;48.13;101525.38;4984606;28;20347;-68
2022/08/22 02:24:34;;;;;;;4.83;2.40;;;;;;;23.63;48.48;101528.19;4973892;28;20935;-68
2022/08/22 02:27:30;;;;;;;7.63;2.80;;;;;;;23.64;48.25;101526.34;4965013;28;20059;-69
2022/08/22 02:30:06;;;;;;;5.35;2.58;;;;;;;23.61;48.44;101521.34;4979261;28;20030;-68
2022/08/22 02:32:44;;;;;;;6.13;2.60;;;;;;;23.59;47.90;101521.50;4969606;28;20121;-66
2022/08/22 02:35:22;;;;;;;7.45;3.10;;;;;;;23.61;48.13;101518.69;4972055;28;20410;-67
2022/08/22 02:38:13;;;;;;;5.55;2.78;;;;;;;23.54;48.34;101510.41;4963953;28;20058;-67
2022/08/22 02:40:58;;;;;;;5.57;2.78;;;;;;;23.63;48.47;101522.03;4979866;28;20042;-64
2022/08/22 02:43:35;;;;;;;6.38;2.72;;;;;;;23.58;48.35;101525.13;4983904;28;20046;-64
2022/08/22 02:46:16;;;;;;;6.90;2.80;;;;;;;23.58;48.03;101518.97;4964927;28;20026;-67
2022/08/22 02:48:52;;;;;;;5.03;2.78;;;;;;;23.61;48.13;101526.66;4964311;28;20035;-66
2022/08/22 02:51:38;;;;;;;6.30;2.28;;;;;;;23.55;48.57;101510.28;4964538;28;20031;-65
2022/08/22 02:54:09;;;;;;;4.97;2.47;;;;;;;23.60;48.73;101525.81;4980883;28;20066;-67
2022/08/22 02:57:00;;;;;;;5.38;2.72;;;;;;;23.58;48.67;101527.78;4983685;28;20050;-67
2022/08/22 02:59:25;;;;;;;5.25;2.55;;;;;;;23.57;48.58;101522.59;4970145;28;20349;-66
2022/08/22 03:01:51;;;;;;;6.70;2.70;;;;;;;23.54;48.89;101510.41;4967014;28;20045;-65
2022/08/22 03:04:44;;;;;;;6.07;2.83;;;;;;;23.52;48.70;101513.22;4977554;28;20455;-66
2022/08/22 03:07:18;;;;;;;4.60;2.90;;;;;;;23.51;48.73;101516.88;4965979;28;20482;-64
2022/08/22 03:10:25;;;;;;;8.27;3.00;;;;;;;23.54;48.71;101529.91;4964625;28;20034;-66
2022/08/22 03:13:10;;;;;;;6.32;3.38;;;;;;;23.54;48.40;101534.34;4940631;29;20122;-65
2022/08/22 03:15:52;;;;;;;8.02;3.17;;;;;;;23.53;48.18;101524.72;4922901;29;20248;-66
2022/08/22 03:18:28;;;;;;;6.35;2.97;;;;;;;23.52;48.55;101518.53;4952589;28;20050;-66
2022/08/22 03:21:22;;;;;;;5.65;2.85;;;;;;;23.52;48.15;101515.88;4974465;28;20912;-67
2022/08/22 03:23:54;;;;;;;5.97;2.80;;;;;;;23.51;48.30;101506.25;4965097;28;20477;-68
2022/08/22 03:26:35;;;;;;;6.95;3.10;;;;;;;23.53;48.20;101506.09;4975915;28;20053;-66
2022/08/22 03:29:10;;;;;;;6.70;2.90;;;;;;;23.50;48.23;101504.56;4973184;28;20046;-66
2022/08/22 03:31:38;;;;;;;5.13;2.97;;;;;;;23.48;48.10;101498.56;4982514;28;20030;-66
2022/08/22 03:34:21;;;;;;;5.80;3.03;;;;;;;23.52;48.28;101512.41;4979200;28;20689;-65
2022/08/22 03:37:14;;;;;;;5.45;2.97;;;;;;;23.49;47.91;101507.34;4978099;28;20026;-67
2022/08/22 03:39:51;;;;;;;6.15;3.22;;;;;;;23.50;47.91;101504.56;4969693;28;20030;-67
2022/08/22 03:42:39;;;;;;;6.65;3.10;;;;;;;23.45;48.31;101485.53;4972922;28;20065;-65
2022/08/22 03:45:27;;;;;;;5.40;3.13;;;;;;;23.47;48.11;101496.03;4966469;28;20097;-66
2022/08/22 03:48:26;;;;;;;5.32;3.05;;;;;;;23.48;48.21;101492.38;4970237;28;20034;-65
2022/08/22 03:51:12;;;;;;;5.70;2.95;;;;;;;23.43;48.41;101482.19;4973352;28;20053;-67
2022/08/22 03:53:52;;;;;;;8.05;3.45;;;;;;;23.46;48.06;101491.69;4976547;28;20039;-67
2022/08/22 03:56:37;;;;;;;6.28;3.10;;;;;;;23.44;48.02;101485.69;4979371;28;20044;-67
2022/08/22 03:59:16;;;;;;;;;;;;;;;23.46;48.44;101495.16;4980817;28;20037;-66
2022/08/22 04:02:16;;;;;;;4.88;3.05;;;;;;;23.46;48.42;101494.34;4968148;28;19906;-66
2022/08/22 04:04:59;;;;;;;6.63;3.28;;;;;;;23.45;48.36;101495.31;4977174;28;20348;-65
2022/08/22 04:08:00;;;;;;;6.50;2.92;;;;;;;23.43;48.39;101495.50;4974235;28;20054;-67
2022/08/22 04:10:34;;;;;;;5.72;2.95;;;;;;;23.42;48.29;101493.81;4966175;28;20463;-64
2022/08/22 04:13:18;;;;;;;6.32;3.30;;;;;;;23.42;47.89;101492.97;4970896;28;20453;-67
2022/08/22 04:16:20;;;;;;;6.10;3.10;;;;;;;23.40;48.30;101495.78;4982454;28;20979;-66
2022/08/22 04:18:56;;;;;;;5.60;3.63;;;;;;;23.40;48.09;101497.56;4969527;28;20062;-66
2022/08/22 04:21:50;;;;;;;6.85;3.50;;;;;;;23.40;48.35;101505.56;4975795;28;20033;-68
2022/08/22 04:24:33;;;;;;;5.97;3.10;;;;;;;23.37;48.30;101506.69;4976298;28;20034;-67
2022/08/22 04:27:22;;;;;;;6.18;2.92;;;;;;;23.34;48.29;101507.00;4982047;28;20104;-67
2022/08/22 04:30:21;;;;;;;5.35;3.15;;;;;;;23.36;48.17;101505.00;4980135;28;20490;-66
2022/08/22 04:33:27;;;;;;;5.85;2.95;;;;;;;23.35;48.50;101512.16;4963080;28;20034;-65
2022/08/22 04:36:03;;;;;;;6.07;3.03;;;;;;;23.34;48.23;101507.81;4972713;28;20034;-65
2022/08/22 04:38:36;;;;;;;6.10;3.42;;;;;;;23.20;48.09;101492.31;4980693;28;20031;-66
2022/08/22 04:41:25;;;;;;;6.27;3.60;;;;;;;23.28;48.64;101496.91;4977479;28;20129;-66
2022/08/22 04:43:57;;;;;;;6.28;3.10;;;;;;;23.28;48.57;101499.56;4976868;28;20257;-67
2022/08/22 04:46:37;;;;;;;6.47;3.78;;;;;;;23.31;48.73;101504.59;4963676;28;20066;-67
2022/08/22 04:49:26;;;;;;;6.22;3.53;;;;;;;23.34;48.54;101509.66;4964413;28;20035;-65
2022/08/22 04:52:18;;;;;;;5.20;2.90;;;;;;;23.31;48.83;101504.59;4968799;28;20027;-67
2022/08/22 04:55:21;;;;;;;5.28;3.25;;;;;;;23.33;48.49;101514.09;4981894;28;20042;-65
2022/08/22 04:57:58;;;;;;;6.90;3.72;;;;;;;23.30;48.66;101513.56;4975204;28;20045;-66
2022/08/22 05:00:24;;;;;;;5.65;3.25;;;;;;;23.20;48.58;101505.59;4975062;28;20023;-65
2022/08/22 05:02:54;;;;;;;7.53;3.67;;;;;;;23.28;48.81;101510.22;4966666;28;20089;-67
2022/08/22 05:05:25;;;;;;;6.53;3.50;;;;;;;23.32;48.66;101519.56;4977998;28;20041;-66
2022/08/22 05:08:00;;;;;;;5.32;3.38;;;;;;;23.29;48.85;101515.38;4983068;28;20046;-67
2022/08/22 05:10:39;;;;;;;6.10;2.85;;;;;;;23.31;48.57;101523.22;4975644;28;20054;-65
2022/08/22 05:13:16;;;;;;;6.95;3.65;;;;;;;23.23;48.90;101510.63;4980929;28;20049;-67
2022/08/22 05:15:47;;;;;;;5.60;3.10;;;;;;;23.32;48.60;101522.22;4982302;28;20035;-67
2022/08/22 05:18:19;;;;;;;5.80;3.20;;;;;;;23.31;49.03;101523.22;4982535;28;20053;-66
2022/08/22 05:20:47;;;;;;;4.82;3.22;;;;;;;23.35;48.77;101535.25;4973376;28;20031;-65
2022/08/22 05:23:27;;;;;;;6.88;3.60;;;;;;;23.35;48.81;101524.59;4976770;28;20063;-65
2022/08/22 05:25:58;;;;;;;6.25;3.63;;;;;;;23.31;48.72;101523.22;4966807;28;20081;-66
2022/08/22 05:28:37;;;;;;;5.78;3.42;;;;;;;23.30;48.49;101521.53;4983890;28;20069;-66
2022/08/22 05:31:07;;;;;;;8.13;4.28;;;;;;;23.25;49.13;101527.28;4985425;28;20042;-65
2022/08/22 05:33:41;;;;;;;7.88;3.50;;;;;;;23.23;49.31;101531.09;4985189;28;20041;-65
2022/08/22 05:36:12;;;;;;;5.32;3.20;;;;;;;23.22;49.26;101529.38;4975580;28;20696;-65
2022/08/22 05:38:43;;;;;;;6.38;3.33;;;;;;;23.26;49.68;101536.13;4971283;28;20018;-65
2022/08/22 05:41:11;;;;;;;5.85;3.40;;;;;;;23.24;49.30;101525.63;4969242;28;20033;-66
2022/08/22 05:43:40;;;;;;;6.47;3.67;;;;;;;23.27;49.78;101532.47;4966008;28;20044;-66
2022/08/22 05:46:15;;;;;;;6.68;3.45;;;;;;;23.29;49.51;101528.69;4965798;28;20142;-66
2022/08/22 05:48:48;;;;;;;5.45;3.33;;;;;;;23.32;49.61;101527.53;4969116;28;20907;-67
2022/08/22 05:51:23;;;;;;;7.07;3.53;;;;;;;23.39;49.42;101541.97;4982706;28;20042;-66
2022/08/22 05:53:56;;;;;;;7.15;3.20;;;;;;;23.33;49.45;101526.56;4983011;28;20034;-65
2022/08/22 05:56:34;;;;;;;6.35;3.55;;;;;;;23.37;49.69;101533.28;4965337;28;20031;-66
2022/08/22 05:59:13;;;;;;;5.22;3.53;;;;;;;23.40;49.58;101529.50;4965322;28;20050;-67
2022/08/22 06:01:58;;;;;;;5.57;3.17;;;;;;;23.39;49.59;101525.19;4971599;28;20167;-65
2022/08/22 06:04:34;;;;;;;6.43;3.05;;;;;;;23.41;49.84;101531.19;4974575;28;20031;-69
2022/08/22 06:07:27;;;;;;;6.22;3.05;;;;;;;23.40;49.66;101527.69;4979114;28;20042;-68
2022/08/22 06:10:21;;;;;;;7.68;3.38;;;;;;;23.34;49.88;101528.25;4973672;28;20034;-66
2022/08/22 06:12:54;;;;;;;6.13;3.03;;;;;;;23.36;49.99;101528.94;4970818;28;20062;-67
2022/08/22 06:15:22;;;;;;;5.88;3.10;;;;;;;23.40;49.97;101535.66;4972822;28;20039;-66
2022/08/22 06:17:53;;;;;;;7.30;3.55;;;;;;;23.39;50.11;101533.16;4973620;28;20026;-65
2022/08/22 06:20:26;;;;;;;7.45;3.33;;;;;;;23.32;49.74;101516.91;4978894;28;20113;-65
2022/08/22 06:22:56;;;;;;;5.65;2.83;;;;;;;23.39;49.81;101522.53;4976092;28;20096;-70
2022/08/22 06:25:25;;;;;;;8.30;3.53;;;;;;;23.44;49.81;101526.41;4964993;28;20062;-65
2022/08/22 06:27:52;;;;;;;7.65;3.28;;;;;;;23.50;50.41;101533.81;4977387;28;20792;-65
2022/08/22 06:30:18;;;;;;;6.80;2.90;;;;;;;23.55;50.10;101539.53;4983079;28;20396;-67
2022/08/22 06:32:50;;;;;;;7.53;3.22;;;;;;;23.55;50.21;101538.72;4967494;28;20354;-70
2022/08/22 06:38:32;;;;;;;7.57;3.47;;;;;;;23.41;50.20;101523.19;4969421;28;20063;-70
2022/08/22 06:40:59;;;;;;;;;;;;;;;23.52;50.68;101544.31;4972905;28;20046;-71
2022/08/22 06:43:25;;;;;;;8.43;3.75;;;;;;;23.55;50.41;101544.84;4968177;28;20306;-70
2022/08/22 06:45:52;;;;;;;6.85;3.22;;;;;;;23.62;50.22;101544.28;4965032;28;20600;-74
2022/08/22 06:48:20;;;;;;;6.65;3.13;;;;;;;23.70;50.21;101547.91;4969171;28;20053;-72
2022/08/22 06:50:54;;;;;;;6.10;3.30;;;;;;;23.76;49.82;101543.81;4973326;28;20043;-71
2022/08/22 06:53:45;;;;;;;8.00;3.30;;;;;;;23.78;49.74;101539.19;4962155;28;20027;-68
2022/08/22 06:56:15;;;;;;;7.72;3.28;;;;;;;23.84;49.75;101557.28;4964720;28;20050;-67
2022/08/22 06:58:44;;;;;;;4.50;2.78;;;;;;;23.83;49.53;101554.72;4977993;28;20026;-68
2022/08/22 07:01:15;;;;;;;8.13;3.25;;;;;;;23.76;49.63;101562.44;4968390;28;20126;-67
2022/08/22 07:03:48;;;;;;;7.47;3.25;;;;;;;23.79;49.74;101566.66;4979601;28;20125;-69
2022/08/22 07:06:16;;;;;;;6.32;3.15;;;;;;;23.73;49.60;101560.94;4971851;28;20066;-70
2022/08/22 07:08:42;;;;;;;5.93;2.92;;;;;;;23.73;49.64;101560.94;4963607;28;20027;-72
2022/08/22 07:11:16;;;;;;;7.60;2.92;;;;;;;23.75;49.57;101563.44;4982258;28;20402;-68
2022/08/22 07:13:44;;;;;;;;;;;;;;;23.73;49.56;101566.25;4983142;28;20463;-65
2022/08/22 07:16:09;;;;;;;9.27;3.30;;;;;;;23.76;49.83;101566.94;4972547;28;20478;-66
2022/08/22 07:18:46;;;;;;;8.38;3.78;;;;;;;23.82;49.85;101575.19;4974208;28;20160;-66
2022/08/22 07:21:23;;;;;;;6.20;3.22;;;;;;;23.80;49.71;101561.19;4966024;28;20031;-65
2022/08/22 07:23:50;;;;;;;6.18;2.97;;;;;;;23.80;49.93;101563.84;4976705;28;20169;-63
2022/08/22 07:26:48;;;;;;;8.73;3.20;;;;;;;23.84;49.97;101564.44;4975488;28;20054;-69
2022/08/22 07:29:41;;;;;;;6.57;3.17;;;;;;;23.89;49.88;101557.69;4982977;28;20026;-64
2022/08/22 07:32:16;;;;;;;12.43;4.00;;;;;;;23.95;49.75;101561.56;4964887;28;20022;-67
2022/08/22 07:34:50;;;;;;;9.68;3.65;;;;;;;23.97;50.15;101559.59;4974642;28;20045;-66
2022/08/22 07:37:32;;;;;;;9.68;3.53;;;;;;;23.98;50.23;101552.47;4965994;28;20038;-67
2022/08/22 07:40:12;;;;;;;11.77;3.78;;;;;;;23.92;50.00;101545.91;4963697;28;20117;-65
2022/08/22 07:43:03;;;;;;;7.57;3.65;;;;;;;23.98;50.25;101553.31;4973885;28;20035;-64
2022/08/22 07:45:41;;;;;;;8.80;3.20;;;;;;;24.00;49.70;101545.16;4958590;28;20055;-64
2022/08/22 07:48:13;;;;;;;10.07;3.38;;;;;;;24.02;50.33;101552.03;4972427;28;20038;-72
2022/08/22 07:51:12;;;;;;;8.07;3.33;;;;;;;24.03;50.13;101542.22;4965273;28;20031;-69
2022/08/22 07:53:58;;;;;;;7.65;3.20;;;;;;;24.01;50.36;101549.53;4965927;28;20026;-69
2022/08/22 07:56:29;;;;;;;10.23;3.22;;;;;;;24.03;50.22;101551.03;4960785;28;20030;-69
2022/08/22 07:58:59;;;;;;;10.90;3.30;;;;;;;24.05;50.17;101545.56;4977421;28;20038;-70
2022/08/22 08:01:25;;;;;;;9.75;3.92;;;;;;;24.12;49.86;101546.66;4981743;28;20134;-69
2022/08/22 08:03:58;;;;;;;7.43;3.05;;;;;;;24.13;50.13;101543.00;4981816;28;20038;-76
2022/08/22 08:06:25;;;;;;;11.73;3.35;;;;;;;24.14;49.92;101533.19;4968393;28;20041;-74
2022/08/22 08:08:52;;;;;;;6.38;3.20;;;;;;;24.19;49.81;101533.59;4968997;28;20446;-74
2022/08/22 08:11:20;;;;;;;8.90;3.13;;;;;;;24.26;49.78;101537.34;4968540;28;20158;-74
2022/08/22 08:13:51;;;;;;;7.60;3.15;;;;;;;24.32;49.62;101536.72;4977416;28;20127;-74
2022/08/22 08:16:21;;;;;;;9.55;2.88;;;;;;;24.32;49.76;101533.25;4964090;28;20034;-73
2022/08/22 08:18:49;;;;;;;7.18;2.70;;;;;;;24.36;49.72;101531.97;4979083;28;20038;-75
2022/08/22 08:21:42;;;;;;;8.35;3.15;;;;;;;24.44;49.29;101534.72;4974960;28;20031;-72
2022/08/22 08:24:14;;;;;;;6.40;2.65;;;;;;;24.41;49.46;101511.88;4974610;28;20486;-72
2022/08/22 08:29:41;;;;;;;8.00;2.95;;;;;;;24.50;49.09;101523.47;4975842;28;20172;-70
2022/08/22 08:32:09;;;;;;;6.13;2.72;;;;;;;24.44;49.50;101516.88;4978564;28;20065;-74
2022/08/22 08:34:36;;;;;;;8.73;3.08;;;;;;;24.50;49.45;101518.13;4966539;28;20023;-72
2022/08/22 08:37:19;;;;;;;10.23;3.50;;;;;;;24.50;49.06;101518.13;4963084;28;20114;-72
2022/08/22 08:39:50;;;;;;;6.68;2.67;;;;;;;24.51;49.44;101522.44;4966703;28;20399;-78
2022/08/22 08:45:38;;;;;;;9.70;3.00;;;;;;;24.57;48.89;101524.53;4978846;28;20599;-72
2022/08/22 08:48:27;;;;;;;6.00;2.93;;;;;;;24.57;49.15;101521.06;4969094;28;20121;-73
2022/08/22 08:51:11;;;;;;;5.95;2.40;;;;;;;24.60;48.97;101523.41;4971719;28;21024;-74
2022/08/22 08:53:52;;;;;;;6.50;2.88;;;;;;;24.54;48.79;101516.00;4980560;28;20038;-71
2022/08/22 08:56:43;;;;;;;8.85;2.72;;;;;;;24.59;49.00;101516.41;4975711;28;20088;-71
2022/08/22 08:59:37;;;;;;;6.18;2.50;;;;;;;24.58;48.86;101523.56;4961872;28;20467;-72
2022/08/22 09:02:25;;;;;;;7.43;2.88;;;;;;;24.58;48.82;101520.06;4971816;28;20442;-69
2022/08/22 09:05:11;;;;;;;10.10;2.83;;;;;;;24.56;48.89;101517.56;4970168;28;20371;-73
2022/08/22 09:07:45;;;;;;;7.10;2.67;;;;;;;24.56;48.94;101516.66;4966933;28;20034;-71
2022/08/22 09:10:25;;;;;;;6.50;2.28;;;;;;;24.57;48.65;101513.06;4975218;28;20030;-76
2022/08/22 09:13:12;;;;;;;6.10;2.53;;;;;;;24.58;48.51;101517.41;4972112;28;20079;-78
2022/08/22 09:15:59;;;;;;;5.38;2.50;;;;;;;24.61;48.35;101515.28;4964743;28;20073;-76
2022/08/22 09:18:49;;;;;;;5.75;2.13;;;;;;;24.60;48.76;101510.91;4974352;28;20577;-71
2022/08/22 09:21:51;;;;;;;6.70;2.72;;;;;;;24.68;48.36;101512.00;4963833;28;20042;-73
2022/08/22 09:24:26;;;;;;;7.20;2.20;;;;;;;24.70;48.51;101512.69;4961437;28;21029;-72
2022/08/22 09:27:00;;;;;;;7.07;2.60;;;;;;;24.69;48.12;101509.19;4974133;28;20049;-72
2022/08/22 09:29:47;;;;;;;5.80;2.45;;;;;;;24.70;48.03;101505.50;4969924;28;20043;-72
2022/08/22 09:32:27;;;;;;;8.45;2.63;;;;;;;24.71;48.55;101509.88;4964473;28;20027;-71
2022/08/22 09:34:56;;;;;;;7.05;3.03;;;;;;;24.71;48.20;101515.19;4961151;28;20066;-71
2022/08/22 09:37:56;;;;;;;6.68;2.83;;;;;;;24.72;48.42;101514.22;4977161;28;20425;-73
2022/08/22 09:40:29;;;;;;;5.97;2.80;;;;;;;24.71;47.86;101515.19;4978610;28;20042;-70
2022/08/22 09:42:54;;;;;;;6.20;2.45;;;;;;;24.69;47.88;101514.53;4973629;28;20035;-74
2022/08/22 09:45:26;;;;;;;10.67;2.60;;;;;;;24.70;47.96;101518.84;4966719;28;20034;-74
2022/08/22 09:48:16;;;;;;;7.63;2.58;;;;;;;24.72;48.17;101511.56;4982358;28;20268;-75
2022/08/22 09:50:52;;;;;;;5.97;2.70;;;;;;;24.78;48.10;101510.09;4984317;28;20378;-72
2022/08/22 09:53:32;;;;;;;7.60;2.47;;;;;;;24.82;47.69;101511.47;4956365;28;20034;-71
2022/08/22 09:56:07;;;;;;;5.45;2.83;;;;;;;24.87;47.70;101513.69;4973004;28;20034;-73
2022/08/22 09:58:59;;;;;;;5.78;2.20;;;;;;;24.87;47.73;101514.50;4964815;28;20073;-72
2022/08/22 10:01:30;;;;;;;9.32;2.75;;;;;;;24.87;47.48;101505.69;4972119;28;20022;-77
2022/08/22 10:04:30;;;;;;;5.70;2.28;;;;;;;24.85;47.45;101497.84;4979003;28;20042;-73
2022/08/22 10:07:07;;;;;;;6.03;2.30;;;;;;;24.87;47.41;101501.19;4967083;28;20169;-70
2022/08/22 10:09:56;;;;;;;8.38;2.47;;;;;;;24.81;47.90;101488.47;4966780;28;20474;-68
2022/08/22 10:12:30;;;;;;;6.28;2.42;;;;;;;24.83;47.47;101485.63;4968000;28;20118;-74
2022/08/22 10:15:17;;;;;;;7.53;2.30;;;;;;;24.80;47.82;101481.44;4966801;28;20053;-72
2022/08/22 10:18:02;;;;;;;10.50;2.58;;;;;;;24.84;47.62;101484.66;4983308;28;20038;-72
2022/08/22 10:20:34;;;;;;;4.90;2.22;;;;;;;24.83;47.89;101491.78;4972744;28;20070;-72
2022/08/22 10:23:20;;;;;;;4.75;2.17;;;;;;;24.87;47.49;101489.69;4968833;28;20038;-72
2022/08/22 10:25:52;;;;;;;4.80;2.47;;;;;;;24.86;47.50;101480.00;4964771;28;20141;-72
2022/08/22 10:28:48;;;;;;;5.18;2.35;;;;;;;24.89;47.80;101477.03;4981966;28;20077;-70
2022/08/22 10:31:28;;;;;;;5.35;2.50;;;;;;;24.89;47.24;101480.53;4977964;28;20042;-71
2022/08/22 10:34:01;;;;;;;5.43;2.28;;;;;;;24.91;47.35;101475.03;4983735;28;20041;-68
2022/08/22 10:36:31;;;;;;;5.93;2.20;;;;;;;24.87;47.37;101476.34;4967614;28;20035;-68
2022/08/22 10:38:58;;;;;;;5.00;2.28;;;;;;;24.81;47.65;101470.63;4973382;28;20097;-70
2022/08/22 10:41:42;;;;;;;5.47;2.40;;;;;;;24.82;47.63;101471.47;4971352;28;20073;-74
2022/08/22 10:44:34;;;;;;;7.07;2.30;;;;;;;24.72;47.55;101454.72;4972208;28;20097;-68
2022/08/22 10:47:07;;;;;;;5.95;2.13;;;;;;;24.79;47.72;101458.47;4972261;28;20385;-73
2022/08/22 10:49:39;;;;;;;8.45;2.50;;;;;;;24.79;47.83;101458.47;4972067;28;20027;-71
2022/08/22 10:52:09;;;;;;;5.40;2.60;;;;;;;24.81;47.78;101461.81;4974273;28;20053;-64
2022/08/22 10:54:41;;;;;;;5.40;2.20;;;;;;;24.86;47.51;101467.50;4978250;28;21055;-64
2022/08/22 10:57:38;;;;;;;6.10;2.75;;;;;;;24.85;47.37;101451.66;4981774;28;20165;-69
2022/08/22 11:00:12;;;;;;;5.93;2.55;;;;;;;24.89;47.54;101451.19;4972490;28;20041;-66
2022/08/22 11:02:53;;;;;;;5.75;2.22;;;;;;;24.91;47.25;101456.38;4974346;28;20033;-64
2022/08/22 11:05:42;;;;;;;7.35;2.60;;;;;;;24.90;47.29;101457.38;4977814;28;20034;-69
2022/08/22 11:08:18;;;;;;;4.70;2.40;;;;;;;24.89;47.31;101464.53;4989762;28;20031;-70
2022/08/22 11:11:01;;;;;;;8.10;2.53;;;;;;;24.88;47.78;101460.22;4976104;28;20383;-72
2022/08/22 11:13:53;;;;;;;7.05;2.40;;;;;;;24.84;47.56;101458.00;4967930;28;20038;-73
2022/08/22 11:16:32;;;;;;;4.55;2.10;;;;;;;24.89;47.68;101458.38;4973459;28;20034;-72
2022/08/22 11:19:31;;;;;;;5.63;2.28;;;;;;;24.87;47.90;101457.69;4981894;28;20080;-72
2022/08/22 11:22:20;;;;;;;4.93;2.15;;;;;;;24.87;47.76;101450.53;4972012;28;20383;-73
2022/08/22 11:25:09;;;;;;;6.65;2.58;;;;;;;24.85;48.00;101452.53;4971082;28;20109;-76
2022/08/22 11:28:01;;;;;;;5.22;2.40;;;;;;;24.87;47.89;101447.84;4973620;28;20027;-73
2022/08/22 11:30:45;;;;;;;5.35;2.22;;;;;;;24.85;47.59;101443.66;4965248;28;20446;-71
2022/08/22 11:33:32;;;;;;;6.68;2.35;;;;;;;24.87;47.56;101441.69;4974975;28;20368;-72
2022/08/22 11:36:31;;;;;;;6.93;2.22;;;;;;;24.90;47.59;101452.06;4982478;28;20038;-72
2022/08/22 11:39:09;;;;;;;7.80;2.45;;;;;;;24.88;47.56;101444.22;4987297;28;20510;-74
2022/08/22 11:41:46;;;;;;;6.97;2.20;;;;;;;24.85;47.69;101438.34;4974342;28;20061;-72
2022/08/22 11:44:18;;;;;;;6.13;2.45;;;;;;;24.90;47.72;101438.72;4964176;28;20049;-75
2022/08/22 11:46:47;;;;;;;5.70;2.45;;;;;;;24.92;47.73;101437.56;4964253;28;20038;-74
2022/08/22 11:49:41;;;;;;;6.20;2.20;;;;;;;24.92;47.54;101426.06;4979921;28;20034;-71
2022/08/22 11:52:14;;;;;;;5.85;2.17;;;;;;;24.90;47.34;101428.88;4975813;28;20049;-70
2022/08/22 11:55:11;;;;;;;5.60;2.63;;;;;;;24.95;47.25;101436.44;4968455;28;20084;-69
2022/08/22 11:57:43;;;;;;;6.20;2.38;;;;;;;24.94;47.27;101430.25;4958801;28;20043;-68
2022/08/22 12:00:28;;;;;;;7.40;2.33;;;;;;;24.93;47.28;101439.25;4971242;28;20070;-70
2022/08/22 12:03:33;;;;;;;5.05;2.10;;;;;;;24.90;47.16;101428.06;4963639;28;20117;-66
2022/08/22 12:05:59;;;;;;;5.63;2.10;;;;;;;24.95;47.32;101434.59;4958712;28;20814;-66
2022/08/22 12:08:33;;;;;;;6.70;2.20;;;;;;;24.96;47.41;101440.78;4962680;28;20042;-71
2022/08/22 12:11:06;;;;;;;6.00;2.70;;;;;;;24.96;47.35;101444.25;4966734;28;20026;-68
2022/08/22 12:13:59;;;;;;;6.73;2.50;;;;;;;24.97;47.32;101439.75;4970019;28;20041;-68
2022/08/22 12:16:35;;;;;;;4.88;2.30;;;;;;;24.99;47.33;101440.44;4981813;28;20030;-72
2022/08/22 12:19:18;;;;;;;6.57;1.98;;;;;;;24.95;47.29;101431.09;4981675;28;20124;-69
2022/08/22 12:22:06;;;;;;;6.32;2.30;;;;;;;24.94;47.22;101434.75;4975039;28;20045;-70
2022/08/22 12:25:00;;;;;;;14.90;2.65;;;;;;;24.96;47.64;101435.44;4976804;28;20053;-70
2022/08/22 12:27:51;;;;;;;5.35;2.15;;;;;;;24.99;47.38;101437.78;4980367;28;20564;-70
2022/08/22 12:30:45;;;;;;;6.07;2.15;;;;;;;25.00;47.27;101442.13;4969588;28;20085;-68
2022/08/22 12:33:31;;;;;;;6.97;2.30;;;;;;;24.96;47.26;101428.28;4951740;28;20045;-71
2022/08/22 12:36:29;;;;;;;5.05;2.00;;;;;;;25.03;47.36;101438.31;4962101;28;20914;-75